createdAt,value
2022-08-26T00:01:35.922Z,10.68
2022-08-26T00:07:37.747Z,10.40
2022-08-26T00:13:40.234Z,10.15
2022-08-26T00:19:49.929Z,9.85
2022-08-26T00:25:54.759Z,10.35
2022-08-26T00:31:58.623Z,10.55
2022-08-26T00:38:01.266Z,10.57
2022-08-26T00:44:04.349Z,11.05
2022-08-26T00:50:10.256Z,11.10
2022-08-26T00:56:26.570Z,11.52
2022-08-26T01:02:28.955Z,11.05
2022-08-26T01:08:31.348Z,10.30
2022-08-26T01:14:36.733Z,10.25
2022-08-26T01:20:59.730Z,10.63
2022-08-26T01:27:06.989Z,10.82
2022-08-26T01:33:15.030Z,10.38
2022-08-26T01:45:25.111Z,11.25
2022-08-26T01:51:28.375Z,10.55
2022-08-26T01:57:31.611Z,11.20
2022-08-26T02:03:38.732Z,12.25
2022-08-26T02:09:44.621Z,11.25
2022-08-26T02:15:47.669Z,11.43
2022-08-26T02:21:51.976Z,12.02
2022-08-26T02:27:56.596Z,12.65
2022-08-26T02:34:13.328Z,13.00
2022-08-26T02:40:21.481Z,13.27
2022-08-26T02:46:29.812Z,12.18
2022-08-26T02:52:31.924Z,13.95
2022-08-26T02:58:34.350Z,12.65
2022-08-26T03:04:36.725Z,14.70
2022-08-26T03:10:41.349Z,13.10
2022-08-26T03:16:43.239Z,14.15
2022-08-26T03:22:45.894Z,15.23
2022-08-26T03:29:06.509Z,14.23
2022-08-26T03:35:08.823Z,16.23
2022-08-26T03:41:12.280Z,14.95
2022-08-26T03:47:14.017Z,15.75
2022-08-26T03:53:15.777Z,16.17
2022-08-26T03:59:21.651Z,14.65
2022-08-26T04:05:23.626Z,16.02
2022-08-26T04:11:34.104Z,15.70
2022-08-26T04:17:37.118Z,15.35
2022-08-26T04:23:47.339Z,15.73
2022-08-26T04:29:53.572Z,15.30
2022-08-26T04:36:09.025Z,16.00
2022-08-26T04:42:10.934Z,15.50
2022-08-26T04:48:12.819Z,15.30
2022-08-26T04:54:19.242Z,15.10
2022-08-26T05:00:21.962Z,14.23
2022-08-26T05:06:24.122Z,14.55
2022-08-26T05:12:27.781Z,15.65
2022-08-26T05:18:30.236Z,14.93
2022-08-26T05:24:31.953Z,16.05
2022-08-26T05:30:33.938Z,12.93
2022-08-26T05:36:37.007Z,14.60
2022-08-26T05:42:39.565Z,13.77
2022-08-26T05:48:41.387Z,14.07
2022-08-26T05:54:46.227Z,15.95
2022-08-26T06:01:12.250Z,12.95
2022-08-26T06:07:14.149Z,14.32
2022-08-26T06:13:18.354Z,16.08
2022-08-26T06:19:24.468Z,15.25
2022-08-26T06:25:38.334Z,15.43
2022-08-26T06:31:40.153Z,13.68
2022-08-26T06:37:42.811Z,14.48
2022-08-26T06:43:44.556Z,15.68
2022-08-26T06:49:46.426Z,12.93
2022-08-26T06:55:48.182Z,13.93
2022-08-26T07:01:54.619Z,13.68
2022-08-26T07:07:57.965Z,13.38
2022-08-26T07:13:59.837Z,12.65
2022-08-26T07:20:03.455Z,12.82
2022-08-26T07:26:15.239Z,11.60
2022-08-26T07:32:20.391Z,12.35
2022-08-26T07:38:24.734Z,12.32
2022-08-26T07:44:27.314Z,11.75
2022-08-26T07:50:50.373Z,11.90
2022-08-26T07:56:51.077Z,11.88
2022-08-26T08:02:53.681Z,11.52
2022-08-26T08:08:58.286Z,11.10
2022-08-26T08:15:00.064Z,11.52
2022-08-26T08:21:21.298Z,11.38
2022-08-26T08:27:25.785Z,10.82
2022-08-26T08:33:30.191Z,8.73
2022-08-26T08:39:32.838Z,9.40
2022-08-26T08:45:39.259Z,9.30
2022-08-26T08:51:43.721Z,9.70
2022-08-26T08:58:02.122Z,9.65
2022-08-26T09:04:27.932Z,9.80
2022-08-26T09:10:36.249Z,9.15
2022-08-26T09:17:07.848Z,8.68
2022-08-26T09:23:11.076Z,8.90
2022-08-26T09:35:32.922Z,8.07
2022-08-26T09:41:36.941Z,8.23
2022-08-26T09:47:47.896Z,8.02
2022-08-26T09:53:58.453Z,7.90
2022-08-26T10:00:03.571Z,7.90
2022-08-26T10:06:17.415Z,8.20
2022-08-26T10:12:21.661Z,7.57
2022-08-26T10:18:33.889Z,7.78
2022-08-26T10:24:51.917Z,7.28
2022-08-26T10:31:27.493Z,7.57
2022-08-26T10:37:58.068Z,7.68
2022-08-26T10:44:01.733Z,7.82
2022-08-26T10:50:05.920Z,7.13
2022-08-26T10:56:18.861Z,7.20
2022-08-26T11:02:35.895Z,7.30
2022-08-26T11:08:49.815Z,6.73
2022-08-26T11:14:53.306Z,6.53
2022-08-26T11:20:56.077Z,6.53
2022-08-26T11:26:58.029Z,6.60
2022-08-26T11:33:00.120Z,7.45
2022-08-26T11:39:04.674Z,6.30
2022-08-26T11:45:26.958Z,5.73
2022-08-26T11:51:31.612Z,6.20
2022-08-26T11:57:40.875Z,5.97
2022-08-26T12:03:52.027Z,5.45
2022-08-26T12:10:00.560Z,5.65
2022-08-26T12:16:04.647Z,5.25
2022-08-26T12:22:26.815Z,5.50
2022-08-26T12:28:30.139Z,5.00
2022-08-26T12:34:31.983Z,4.90
2022-08-26T12:40:43.262Z,5.32
2022-08-26T12:46:49.204Z,5.25
2022-08-26T12:52:51.437Z,6.15
2022-08-26T12:59:20.756Z,6.13
2022-08-26T13:05:28.829Z,5.88
2022-08-26T13:11:35.322Z,6.10
2022-08-26T13:17:37.675Z,5.85
2022-08-26T13:23:42.424Z,5.40
2022-08-26T13:29:44.376Z,5.88
2022-08-26T13:35:47.387Z,5.00
2022-08-26T13:41:49.477Z,5.05
2022-08-26T13:47:51.287Z,5.97
2022-08-26T13:53:54.084Z,5.78
2022-08-26T13:59:58.832Z,5.93
2022-08-26T14:06:00.568Z,6.25
2022-08-26T14:12:02.835Z,6.45
2022-08-26T14:18:07.781Z,6.68
2022-08-26T14:24:10.500Z,6.35
2022-08-26T14:30:12.964Z,6.38
2022-08-26T14:36:31.848Z,6.18
2022-08-26T14:42:34.689Z,6.15
2022-08-26T14:48:36.395Z,6.13
2022-08-26T14:54:38.146Z,5.80
2022-08-26T15:00:39.951Z,5.47
2022-08-26T15:06:44.346Z,5.55
2022-08-26T15:12:46.532Z,4.57
2022-08-26T15:18:49.421Z,4.20
2022-08-26T15:24:51.864Z,4.45
2022-08-26T15:30:55.789Z,3.95
2022-08-26T15:36:57.761Z,3.88
2022-08-26T15:43:17.818Z,4.15
2022-08-26T15:49:20.085Z,4.70
2022-08-26T15:55:23.377Z,3.85
2022-08-26T16:01:27.500Z,4.65
2022-08-26T16:07:31.164Z,4.80
2022-08-26T16:13:39.528Z,4.43
2022-08-26T16:19:41.550Z,5.05
2022-08-26T16:25:43.429Z,4.53
2022-08-26T16:31:45.304Z,4.50
2022-08-26T16:37:47.373Z,5.50
2022-08-26T16:43:49.386Z,5.50
2022-08-26T16:49:51.248Z,5.57
2022-08-26T16:55:53.022Z,6.60
2022-08-26T17:01:54.859Z,6.60
2022-08-26T17:07:58.754Z,6.20
2022-08-26T17:14:00.555Z,6.70
2022-08-26T17:20:09.488Z,7.03
2022-08-26T17:26:12.339Z,7.18
2022-08-26T17:32:14.090Z,6.88
2022-08-26T17:38:15.793Z,6.97
2022-08-26T17:44:17.701Z,7.60
2022-08-26T17:50:21.126Z,8.35
2022-08-26T17:56:28.028Z,8.20
2022-08-26T18:08:37.338Z,4.50
2022-08-26T18:14:39.053Z,4.18
2022-08-26T18:20:42.578Z,3.17
2022-08-26T18:26:48.759Z,2.75
2022-08-26T18:32:51.769Z,3.08
2022-08-26T18:38:54.090Z,3.30
2022-08-26T18:44:56.024Z,3.38
2022-08-26T18:51:00.042Z,4.18
2022-08-26T18:57:02.775Z,4.68
2022-08-26T19:03:04.667Z,4.68
2022-08-26T19:09:11.806Z,4.60
2022-08-26T19:15:16.009Z,4.88
2022-08-26T19:21:18.143Z,4.80
2022-08-26T19:27:19.872Z,4.57
2022-08-26T19:33:21.956Z,5.22
2022-08-26T19:39:24.600Z,5.90
2022-08-26T19:45:28.097Z,6.15
2022-08-26T19:51:31.794Z,5.97
2022-08-26T19:57:34.621Z,6.25
2022-08-26T20:03:37.077Z,5.93
2022-08-26T20:09:39.103Z,5.65
2022-08-26T20:15:40.966Z,6.63
2022-08-26T20:21:42.957Z,6.38
2022-08-26T20:27:44.826Z,6.45
2022-08-26T20:33:46.984Z,7.10
2022-08-26T20:39:49.078Z,6.65
2022-08-26T20:45:50.926Z,6.90
2022-08-26T20:51:53.061Z,9.13
2022-08-26T20:57:54.810Z,11.32
2022-08-26T21:03:57.040Z,9.00
2022-08-26T21:09:58.760Z,10.73
2022-08-26T21:16:01.265Z,15.20
2022-08-26T21:22:03.191Z,16.52
2022-08-26T21:28:05.378Z,18.00
2022-08-26T21:34:07.241Z,15.75
2022-08-26T21:40:10.071Z,17.83
2022-08-26T21:46:14.643Z,22.60
2022-08-26T21:52:17.285Z,17.65
2022-08-26T21:58:19.005Z,10.10
2022-08-26T22:04:20.886Z,7.80
2022-08-26T22:10:22.692Z,8.13
2022-08-26T22:16:26.808Z,7.85
2022-08-26T22:22:29.175Z,6.95
2022-08-26T22:28:31.756Z,6.18
2022-08-26T22:34:33.905Z,6.78
2022-08-26T22:40:36.915Z,7.30
2022-08-26T22:46:41.398Z,6.53
2022-08-26T22:52:43.128Z,6.85
2022-08-26T22:58:45.449Z,6.30
2022-08-26T23:04:47.276Z,7.10
2022-08-26T23:10:49.026Z,7.50
2022-08-26T23:16:51.690Z,9.73
2022-08-26T23:22:54.504Z,11.60
2022-08-26T23:28:56.276Z,13.05
2022-08-26T23:35:00.921Z,13.40
2022-08-26T23:41:02.676Z,16.25
2022-08-26T23:47:05.035Z,18.05
2022-08-26T23:53:08.532Z,17.40
2022-08-26T23:59:10.279Z,21.92
